Mendes, Georgia
Current Conditions -  °F | °C
As of 10:35 PM on Sunday 23 Nov 2014 (Local Time) from KCWV Reporting Station
Light Rain Light Rain  
Wind Chill: 68°   Ceiling: 4000
Heat Index: 68°   Visibility: 10mi
Dew Point: 68°   Wind: 3mph
Humidity: 100%   Direction: 200°SSW
Pressure: 29.85"   Gusts: NA
Location:  31.9485°N, 81.9795°W
Report Text: KCWV 240335Z AUTO 20003KT 10SM -RA SCT012 BKN040 OVC095 20/20 A2985 RMK AO2 LTG DSNT NE AND E
Loading
Personal Weather Stations






























Interactive Weather Map New forecast layout! Learn more

10-Day Weather Forecast

Advertisements
Track Severe Weather on mobile